地図

経路データ

SID SEASON NUMBER BASIN SUBBASIN NAME ISO_TIME NATURE LAT LON WMO_WIND WMO_PRES WMO_AGENCY TRACK_TYPE DIST2LAND LANDFALL IFLAG USA_AGENCY USA_ATCF_ID USA_LAT USA_LON USA_RECORD USA_STATUS USA_WIND USA_PRES USA_SSHS USA_R34_NE USA_R34_SE USA_R34_SW USA_R34_NW USA_R50_NE USA_R50_SE USA_R50_SW USA_R50_NW USA_R64_NE USA_R64_SE USA_R64_SW USA_R64_NW USA_POCI USA_ROCI USA_RMW USA_EYE TOKYO_LAT TOKYO_LON TOKYO_GRADE TOKYO_WIND TOKYO_PRES TOKYO_R50_DIR TOKYO_R50_LONG TOKYO_R50_SHORT TOKYO_R30_DIR TOKYO_R30_LONG TOKYO_R30_SHORT TOKYO_LAND CMA_LAT CMA_LON CMA_CAT CMA_WIND CMA_PRES HKO_LAT HKO_LON HKO_CAT HKO_WIND HKO_PRES NEWDELHI_LAT NEWDELHI_LON NEWDELHI_GRADE NEWDELHI_WIND NEWDELHI_PRES NEWDELHI_CI NEWDELHI_DP NEWDELHI_POCI REUNION_LAT REUNION_LON REUNION_TYPE REUNION_WIND REUNION_PRES REUNION_TNUM REUNION_CI REUNION_RMW REUNION_R34_NE REUNION_R34_SE REUNION_R34_SW REUNION_R34_NW REUNION_R50_NE REUNION_R50_SE REUNION_R50_SW REUNION_R50_NW REUNION_R64_NE REUNION_R64_SE REUNION_R64_SW REUNION_R64_NW BOM_LAT BOM_LON BOM_TYPE BOM_WIND BOM_PRES BOM_TNUM BOM_CI BOM_RMW BOM_R34_NE BOM_R34_SE BOM_R34_SW BOM_R34_NW BOM_R50_NE BOM_R50_SE BOM_R50_SW BOM_R50_NW BOM_R64_NE BOM_R64_SE BOM_R64_SW BOM_R64_NW BOM_ROCI BOM_POCI BOM_EYE BOM_POS_METHOD BOM_PRES_METHOD NADI_LAT NADI_LON NADI_CAT NADI_WIND NADI_PRES WELLINGTON_LAT WELLINGTON_LON WELLINGTON_WIND WELLINGTON_PRES DS824_LAT DS824_LON DS824_STAGE DS824_WIND DS824_PRES TD9636_LAT TD9636_LON TD9636_STAGE TD9636_WIND TD9636_PRES TD9635_LAT TD9635_LON TD9635_WIND TD9635_PRES TD9635_ROCI NEUMANN_LAT NEUMANN_LON NEUMANN_CLASS NEUMANN_WIND NEUMANN_PRES MLC_LAT MLC_LON MLC_CLASS MLC_WIND MLC_PRES USA_GUST BOM_GUST BOM_GUST_PER REUNION_GUST REUNION_GUST_PER USA_SEAHGT USA_SEARAD_NE USA_SEARAD_SE USA_SEARAD_SW USA_SEARAD_NW STORM_SPEED STORM_DIR
1939347S14058 1940 84 SI MM NOT_NAMED 1939-12-13 06:00:00 NR -13.9000 57.6000 reunion main 693 682 _____O________ -1 -13.9000 57.6000 99 9.90000 3 223
1939347S14058 1940 84 SI MM NOT_NAMED 1939-12-13 09:00:00 NR -14.0082 57.4922 main 682 671 _____P________ -1 -14.0082 57.4922 99 3 224
1939347S14058 1940 84 SI MM NOT_NAMED 1939-12-13 12:00:00 NR -14.1215 57.3804 main 671 660 _____P________ -1 -14.1215 57.3804 99 3 223
1939347S14058 1940 84 SI MM NOT_NAMED 1939-12-13 15:00:00 NR -14.2452 57.2605 main 660 649 _____P________ -1 -14.2452 57.2605 99 2 223
1939347S14058 1940 84 SI MM NOT_NAMED 1939-12-13 18:00:00 NR -14.2875 57.2229 main 649 638 _____P____O___ -1 -14.3844 57.1287 99 -13.9000 57.6000 2 3 219
1939347S14058 1940 84 SI MM NOT_NAMED 1939-12-13 21:00:00 NR -14.4551 57.0885 main 628 607 _____P____P___ -1 -14.5443 56.9808 99 -14.2768 57.3039 2 5 218
1939347S14058 1940 84 SI MM NOT_NAMED 1939-12-14 00:00:00 NR -14.6926 56.8955 main 607 576 _____P____P___ -1 -14.7301 56.8128 99 -14.6427 57.0059 2 7 219
1939347S14058 1940 84 SI MM NOT_NAMED 1939-12-14 03:00:00 NR -14.9671 56.6627 main 576 558 _____P____P___ -1 -14.9470 56.6206 99 -14.9873 56.7049 2 7 220
1939347S14058 1940 84 SI MM NOT_NAMED 1939-12-14 06:00:00 TS -15.2556 56.4000 reunion main 549 532 _____O___OO___ -1 -15.2000 56.4000 99 9.90000 -15.3000 56.4000 TC 35 -15.3000 56.4000 2 8 223
1939347S14058 1940 84 SI MM NOT_NAMED 1939-12-14 09:00:00 TS -15.5364 56.1158 main 535 510 _____P___PP___ -1 -15.4921 56.1501 99 -15.5451 56.0927 TC 35 -15.5763 56.0931 2 8 224
1939347S14058 1940 84 SI MM NOT_NAMED 1939-12-14 12:00:00 TS -15.8190 55.8291 main 513 490 _____P___OP___ -1 -15.8172 55.8829 99 -15.8000 55.8000 TC 35 -15.8351 55.7972 2 8 223
1939347S14058 1940 84 SI MM NOT_NAMED 1939-12-14 15:00:00 TS -16.1153 55.5589 main 490 469 _____P___PP___ -1 -16.1670 55.6141 99 -16.0775 55.5349 TC 35 -16.1013 55.5276 2 8 218
1939347S14058 1940 84 SI MM NOT_NAMED 1939-12-14 18:00:00 TS -16.4444 55.3198 main 474 447 _____P___OO___ -1 -16.5332 55.3593 99 -16.4000 55.3000 TC 35 -16.4000 55.3000 2 8 212
1939347S14058 1940 84 SI MM NOT_NAMED 1939-12-14 21:00:00 TS -16.8243 55.0933 main 447 424 _____P___PP___ -1 -16.9077 55.1344 99 -16.7850 55.0701 TC 35 -16.7801 55.0755 2 9 206
1939347S14058 1940 84 SI MM NOT_NAMED 1939-12-15 00:00:00 TS -17.2249 54.9188 main 424 383 _____P___OP___ -1 -17.2823 54.9554 99 -17.2000 54.9000 TC 35 -17.1922 54.9008 2 8 199
1939347S14058 1940 84 SI MM NOT_NAMED 1939-12-15 03:00:00 TS -17.6241 54.8097 main 383 339 _____P___PP___ -1 -17.6491 54.8385 99 -17.6149 54.7901 TC 35 -17.6082 54.8007 2 8 188
1939347S14058 1940 84 SI MM NOT_NAMED 1939-12-15 06:00:00 TS -18.0000 54.8000 reunion main 339 304 _____O___OO___ -1 -18.0000 54.8000 99 9.90000 -18.0000 54.8000 TC 35 -18.0000 54.8000 2 7 172
1939347S14058 1940 84 SI MM NOT_NAMED 1939-12-15 09:00:00 TS -18.3016 54.9145 main 304 269 _____P___PP___ -1 -18.2570 54.8809 99 -18.3150 54.9549 TC 35 -18.3328 54.9076 2 7 153
1939347S14058 1940 84 SI MM NOT_NAMED 1939-12-15 12:00:00 TS -18.5778 55.1179 main 269 246 _____P___OP___ -1 -18.4960 55.0393 99 -18.6000 55.2000 TC 35 -18.6374 55.1145 2 7 143
1939347S14058 1940 84 SI MM NOT_NAMED 1939-12-15 15:00:00 TS -18.8531 55.3597 main 234 212 _____P___PP___ -1 -18.7284 55.2624 99 -18.9074 55.4276 TC 35 -18.9234 55.3892 2 7 138
1939347S14058 1940 84 SI MM NOT_NAMED 1939-12-15 18:00:00 TS -19.1220 55.6458 main 212 180 _____P___OO___ -1 -18.9659 55.5374 99 -19.2000 55.7000 TC 35 -19.2000 55.7000 2 8 132
1939347S14058 1940 84 SI MM NOT_NAMED 1939-12-15 21:00:00 TS -19.3706 55.9623 main 175 137 _____P___PP___ -1 -19.2201 55.8514 99 -19.4501 56.0426 TC 35 -19.4416 55.9931 2 8 129
1939347S14058 1940 84 SI MM NOT_NAMED 1939-12-16 00:00:00 TS -19.6284 56.3018 main 137 94 _____P___OP___ -1 -19.5027 56.1916 99 -19.7000 56.4000 TC 35 -19.6825 56.3139 2 8 131
1939347S14058 1940 84 SI MM NOT_NAMED 1939-12-16 03:00:00 TS -19.9149 56.6303 main 94 53 _____P___PP___ -1 -19.8253 56.5454 99 -19.9623 56.6929 TC 35 -19.9572 56.6527 2 9 136
1939347S14058 1940 84 SI MM NOT_NAMED 1939-12-16 06:00:00 TS -20.2667 56.9667 reunion main 38 10 _____O___OO___ -1 -20.2000 56.9000 99 9.90000 -20.3000 57.0000 TC 35 -20.3000 57.0000 2 11 142
1939347S14058 1940 84 SI MM NOT_NAMED 1939-12-16 09:00:00 TS -20.7435 57.3325 main 22 22 _____P___PP___ -1 -20.7310 57.2388 99 -20.7626 57.3998 TC 35 -20.7370 57.3588 2 12 146
1939347S14058 1940 84 SI MM NOT_NAMED 1939-12-16 12:00:00 TS -21.2888 57.7053 main 89 89 _____P___OP___ -1 -21.3210 57.5938 99 -21.3000 57.8000 TC 35 -21.2453 57.7221 2 13 149
1939347S14058 1940 84 SI MM NOT_NAMED 1939-12-16 15:00:00 TS -21.8625 58.0484 main 159 159 _____P___PP___ -1 -21.9468 57.9553 99 -21.8349 58.1154 TC 35 -21.8058 58.0745 2 13 152
1939347S14058 1940 84 SI MM NOT_NAMED 1939-12-16 18:00:00 TS -22.4617 58.3712 main 235 235 _____P___OO___ -1 -22.5851 58.3136 99 -22.4000 58.4000 TC 35 -22.4000 58.4000 2 14 154
1939347S14058 1940 84 SI MM NOT_NAMED 1939-12-16 21:00:00 TS -23.0698 58.6867 main 308 308 _____P___PP___ -1 -23.2126 58.6582 99 -22.9850 58.7150 TC 35 -23.0117 58.6868 2 14 156
1939347S14058 1940 84 SI MM NOT_NAMED 1939-12-17 00:00:00 TS -23.6930 58.9738 main 381 381 _____P___OP___ -1 -23.8063 58.9783 99 -23.6000 59.0000 TC 35 -23.6348 58.9415 2 13 158
1939347S14058 1940 84 SI MM NOT_NAMED 1939-12-17 03:00:00 TS -24.2985 59.2302 main 451 451 _____P___PP___ -1 -24.3430 59.2627 99 -24.2425 59.2198 TC 35 -24.2656 59.1754 2 12 158
1939347S14058 1940 84 SI MM NOT_NAMED 1939-12-17 06:00:00 TS -24.8333 59.4667 reunion main 514 514 _____O___OO___ -1 -24.8000 59.5000 99 9.90000 -24.9000 59.4000 TC 35 -24.9000 59.4000 2 10 155
1939347S14058 1940 84 SI MM NOT_NAMED 1939-12-17 09:00:00 NR -25.1605 59.6815 main 563 563 _____P________ -1 -25.1605 59.6815 99 TC 2 7 152
1939347S14058 1940 84 SI MM NOT_NAMED 1939-12-17 12:00:00 NR -25.4315 59.8109 main 588 588 _____P________ -1 -25.4315 59.8109 99 2 5 157
1939347S14058 1940 84 SI MM NOT_NAMED 1939-12-17 15:00:00 NR -25.6261 59.8953 main 612 612 _____P________ -1 -25.6261 59.8953 99 2 3 160
1939347S14058 1940 84 SI MM NOT_NAMED 1939-12-17 18:00:00 NR -25.7571 59.9419 main 633 633 _____P________ -1 -25.7571 59.9419 99 2 167
1939347S14058 1940 84 SI MM NOT_NAMED 1939-12-17 21:00:00 NR -25.8373 59.9581 main 637 637 _____P________ -1 -25.8373 59.9581 99 1 168
1939347S14058 1940 84 SI MM NOT_NAMED 1939-12-18 00:00:00 NR -25.8794 59.9514 main 647 644 _____P________ -1 -25.8794 59.9514 99 1 0
1939347S14058 1940 84 SI MM NOT_NAMED 1939-12-18 03:00:00 NR -25.8960 59.9295 main 644 644 _____P________ -1 -25.8960 59.9295 99 1 239
1939347S14058 1940 84 SI MM NOT_NAMED 1939-12-18 06:00:00 NR -25.9000 59.9000 reunion main 644 _____O________ -1 -25.9000 59.9000 99 9.90000 1 0

IBTrACS Databaseについて

本データベースは、米国NOAAが公開する1842年以降の世界の熱帯低気圧のベストトラックデータアーカイブInternational Best Track Archive for Climate Stewardship (IBTrACS)を、ウェブで閲覧しやすい形式に変換したものです。

最終更新日:2021-10-08